Time;durP1;ratioP1;P1;durP2;ratioP2;P2;SDS_P1;SDS_P2;PMS_P1;PMS_P2;Temp;Humidity;BMP_temperature;BMP_pressure;BME280_temperature;BME280_humidity;BME280_pressure;Samples;Min_cycle;Max_cycle;Signal;HPM_P1;HPM_P2
2023/03/08 00:00:17;;;;;;;14.30;10.83;;;6.00;99.90;;;;;;4918246;29;20202;-80
2023/03/08 00:02:43;;;;;;;13.27;10.18;;;6.10;99.90;;;;;;4916574;29;20194;-80
2023/03/08 00:05:09;;;;;;;13.80;10.00;;;6.10;99.90;;;;;;4917072;29;20183;-80
2023/03/08 00:07:36;;;;;;;13.52;10.43;;;6.20;99.90;;;;;;4918302;29;20185;-80
2023/03/08 00:10:03;;;;;;;14.75;10.45;;;6.10;99.90;;;;;;4916903;29;20186;-80
2023/03/08 00:12:28;;;;;;;14.25;10.07;;;6.10;99.90;;;;;;4900886;29;20214;-81
2023/03/08 00:14:54;;;;;;;14.60;10.60;;;6.10;99.90;;;;;;4917689;29;20514;-81
2023/03/08 00:17:20;;;;;;;13.03;10.03;;;6.20;99.90;;;;;;4916808;29;20194;-80
2023/03/08 00:19:45;;;;;;;14.43;10.00;;;6.10;99.90;;;;;;4917931;29;20569;-80
2023/03/08 00:22:11;;;;;;;15.13;10.90;;;6.20;99.90;;;;;;4917011;29;20651;-80
2023/03/08 00:24:37;;;;;;;12.60;10.70;;;6.20;99.90;;;;;;4918646;29;20184;-81
2023/03/08 00:27:03;;;;;;;15.45;11.30;;;6.20;99.90;;;;;;4916506;29;20195;-80
2023/03/08 00:29:30;;;;;;;14.03;11.30;;;6.10;99.90;;;;;;4913504;29;20634;-80
2023/03/08 00:31:55;;;;;;;14.10;11.20;;;6.10;99.90;;;;;;4899191;29;20423;-81
2023/03/08 00:34:21;;;;;;;16.00;11.37;;;6.00;99.90;;;;;;4918023;29;20470;-81
2023/03/08 00:36:47;;;;;;;14.67;10.40;;;6.00;99.90;;;;;;4915874;29;20553;-80
2023/03/08 00:39:15;;;;;;;11.60;10.40;;;6.10;99.90;;;;;;4915430;29;20221;-80
2023/03/08 00:41:41;;;;;;;13.27;10.73;;;6.10;99.90;;;;;;4918001;29;20264;-80
2023/03/08 00:44:07;;;;;;;14.32;10.27;;;6.10;99.90;;;;;;4917112;29;20235;-80
2023/03/08 00:46:33;;;;;;;12.13;10.83;;;6.10;99.90;;;;;;4916888;29;20197;-80
2023/03/08 00:48:58;;;;;;;14.37;10.20;;;6.10;99.90;;;;;;4916854;29;20398;-80
2023/03/08 00:51:25;;;;;;;12.23;10.07;;;6.10;99.90;;;;;;4917175;29;20435;-80
2023/03/08 00:53:50;;;;;;;11.07;10.00;;;6.10;99.90;;;;;;4916700;29;20208;-84
2023/03/08 00:56:16;;;;;;;11.87;10.00;;;6.20;99.90;;;;;;4915781;29;20189;-80
2023/03/08 00:58:42;;;;;;;11.82;10.00;;;6.30;99.90;;;;;;4916000;29;20226;-80
2023/03/08 01:01:12;;;;;;;10.82;9.07;;;6.20;99.90;;;;;;4916030;29;20541;-80
2023/03/08 01:03:38;;;;;;;12.88;10.52;;;6.20;99.90;;;;;;4918014;29;20190;-81
2023/03/08 01:06:07;;;;;;;11.07;9.10;;;6.30;99.90;;;;;;4916732;29;20183;-81
2023/03/08 01:08:33;;;;;;;13.30;10.30;;;6.30;99.90;;;;;;4916914;29;20191;-81
2023/03/08 01:10:59;;;;;;;13.07;9.77;;;6.30;99.90;;;;;;4917332;29;20187;-81
2023/03/08 01:13:31;;;;;;;10.20;9.20;;;6.20;99.90;;;;;;4917599;29;20695;-80
2023/03/08 01:15:57;;;;;;;10.85;9.00;;;6.20;99.90;;;;;;4915871;29;20427;-81
2023/03/08 01:18:22;;;;;;;10.97;9.77;;;6.20;99.90;;;;;;4916600;29;20198;-80
2023/03/08 01:20:57;;;;;;;13.80;9.80;;;6.20;99.90;;;;;;4916811;29;20628;-80
2023/03/08 01:23:23;;;;;;;12.07;9.70;;;6.20;99.90;;;;;;4915552;29;20202;-80
2023/03/08 01:25:48;;;;;;;11.93;9.20;;;6.20;99.90;;;;;;4916521;29;20183;-80
2023/03/08 01:28:14;;;;;;;11.17;9.10;;;6.20;99.90;;;;;;4916382;29;20171;-80
2023/03/08 01:30:40;;;;;;;11.43;9.33;;;6.20;99.90;;;;;;4916890;29;20462;-80
2023/03/08 01:33:05;;;;;;;14.60;10.43;;;6.10;99.90;;;;;;4914236;29;20215;-80
2023/03/08 01:35:31;;;;;;;9.90;8.90;;;6.10;99.90;;;;;;4917236;29;20190;-80
2023/03/08 01:37:57;;;;;;;12.60;9.80;;;6.20;99.90;;;;;;4914526;29;20271;-81
2023/03/08 01:40:22;;;;;;;15.73;10.07;;;6.20;99.90;;;;;;4916435;29;20241;-80
2023/03/08 01:42:48;;;;;;;12.97;9.30;;;6.10;99.90;;;;;;4915813;29;20266;-82
2023/03/08 01:45:51;;;;;;;11.03;8.93;;;6.10;99.90;;;;;;4915845;29;20255;-81
2023/03/08 01:48:19;;;;;;;15.23;11.10;;;6.10;99.90;;;;;;4914847;29;20490;-81
2023/03/08 01:50:45;;;;;;;14.18;10.07;;;6.10;99.90;;;;;;4915896;29;20647;-80
2023/03/08 01:53:12;;;;;;;15.23;9.80;;;6.10;99.90;;;;;;4915377;29;20281;-81
2023/03/08 01:55:38;;;;;;;12.05;9.65;;;6.10;99.90;;;;;;4916525;29;20640;-81
2023/03/08 01:58:03;;;;;;;12.03;9.40;;;6.10;99.90;;;;;;4913912;29;20183;-81
2023/03/08 02:00:29;;;;;;;13.47;11.10;;;6.10;99.90;;;;;;4916203;29;20175;-81
2023/03/08 02:03:06;;;;;;;12.47;10.50;;;6.20;99.90;;;;;;4916058;29;20184;-84
2023/03/08 02:05:33;;;;;;;13.85;9.10;;;6.20;99.90;;;;;;4909736;29;20197;-81
2023/03/08 02:07:59;;;;;;;13.27;9.50;;;6.20;99.90;;;;;;4915370;29;20214;-82
2023/03/08 02:10:24;;;;;;;11.67;10.07;;;6.30;99.90;;;;;;4916579;29;20261;-80
2023/03/08 02:12:53;;;;;;;13.57;9.83;;;6.20;99.90;;;;;;4915822;29;20220;-80
2023/03/08 02:15:20;;;;;;;11.10;9.57;;;6.20;99.90;;;;;;4915264;29;20514;-80
2023/03/08 02:17:46;;;;;;;14.70;9.15;;;6.20;99.90;;;;;;4915079;29;20191;-80
2023/03/08 02:20:17;;;;;;;13.82;10.15;;;6.20;99.90;;;;;;4915385;29;20217;-81
2023/03/08 02:22:44;;;;;;;12.70;9.57;;;6.20;99.90;;;;;;4915788;29;20551;-80
2023/03/08 02:25:17;;;;;;;16.23;10.70;;;6.20;99.90;;;;;;4915080;29;20226;-80
2023/03/08 02:27:44;;;;;;;14.40;10.60;;;6.30;99.90;;;;;;4915825;29;20198;-80
2023/03/08 02:30:13;;;;;;;12.43;10.05;;;6.20;99.90;;;;;;4915364;29;20520;-80
2023/03/08 02:32:38;;;;;;;13.27;10.07;;;6.20;99.90;;;;;;4915547;29;20222;-80
2023/03/08 02:35:04;;;;;;;9.73;8.80;;;6.30;99.90;;;;;;4917729;29;20278;-80
2023/03/08 02:37:31;;;;;;;12.85;10.00;;;6.30;99.90;;;;;;4919894;29;20534;-80
2023/03/08 02:39:57;;;;;;;13.55;9.60;;;6.30;99.90;;;;;;4919746;29;20179;-85
2023/03/08 02:42:23;;;;;;;12.33;10.10;;;6.30;99.90;;;;;;4917741;29;20193;-81
2023/03/08 02:44:49;;;;;;;13.43;9.87;;;6.30;99.90;;;;;;4918787;29;20230;-81
2023/03/08 02:47:14;;;;;;;12.50;10.17;;;6.30;99.90;;;;;;4917835;29;20237;-81
2023/03/08 02:49:40;;;;;;;12.07;10.27;;;6.40;99.90;;;;;;4916859;29;20188;-81
2023/03/08 02:52:06;;;;;;;13.30;11.27;;;6.40;99.90;;;;;;4918265;29;20190;-80
2023/03/08 02:54:32;;;;;;;11.25;9.38;;;6.30;99.90;;;;;;4918797;29;20219;-81
2023/03/08 02:56:58;;;;;;;12.40;10.13;;;6.30;99.90;;;;;;4919489;29;20235;-85
2023/03/08 02:59:24;;;;;;;11.17;9.40;;;6.30;99.90;;;;;;4918602;29;20195;-80
2023/03/08 03:01:49;;;;;;;12.70;9.40;;;6.30;99.90;;;;;;4919063;29;20435;-81
2023/03/08 03:04:15;;;;;;;13.03;8.93;;;6.30;99.90;;;;;;4917595;29;20409;-81
2023/03/08 03:06:43;;;;;;;11.38;9.20;;;6.40;99.90;;;;;;4918766;29;20199;-80
2023/03/08 03:09:09;;;;;;;12.13;9.80;;;6.20;99.90;;;;;;4918071;29;20190;-81
2023/03/08 03:11:35;;;;;;;13.70;9.25;;;6.30;99.90;;;;;;4919559;29;20191;-80
2023/03/08 03:14:01;;;;;;;11.38;9.15;;;6.30;99.90;;;;;;4918080;29;20210;-84
2023/03/08 03:16:27;;;;;;;11.57;9.13;;;6.30;99.90;;;;;;4919643;29;20259;-81
2023/03/08 03:18:55;;;;;;;12.98;9.60;;;6.30;99.90;;;;;;4918574;29;20667;-81
2023/03/08 03:21:21;;;;;;;12.55;9.65;;;6.30;99.90;;;;;;4917689;29;20486;-80
2023/03/08 03:23:47;;;;;;;11.23;9.38;;;6.30;99.90;;;;;;4919009;29;20264;-80
2023/03/08 03:26:16;;;;;;;11.57;9.30;;;6.30;99.90;;;;;;4917739;29;20281;-80
2023/03/08 03:28:42;;;;;;;10.13;8.52;;;6.30;99.90;;;;;;4918438;29;20214;-80
2023/03/08 03:31:10;;;;;;;14.93;9.20;;;6.30;99.90;;;;;;4917603;29;20179;-83
2023/03/08 03:33:36;;;;;;;10.07;9.05;;;6.30;99.90;;;;;;4918447;29;20290;-80
2023/03/08 03:36:02;;;;;;;10.95;8.65;;;6.40;99.90;;;;;;4916564;29;20669;-85
2023/03/08 03:38:29;;;;;;;12.77;9.38;;;6.30;99.90;;;;;;4918537;29;20190;-80
2023/03/08 03:41:01;;;;;;;13.27;9.15;;;6.30;99.90;;;;;;4918933;29;20231;-80
2023/03/08 03:43:28;;;;;;;10.90;8.40;;;6.40;99.90;;;;;;4918183;29;20232;-80
2023/03/08 03:45:55;;;;;;;12.37;9.10;;;6.40;99.90;;;;;;4916875;29;21007;-81
2023/03/08 03:48:20;;;;;;;14.73;10.05;;;6.30;99.90;;;;;;4917907;29;20475;-81
2023/03/08 03:51:00;;;;;;;11.87;9.10;;;6.40;99.90;;;;;;4916752;29;20188;-81
2023/03/08 03:53:28;;;;;;;13.05;9.60;;;6.30;99.90;;;;;;4917220;29;20202;-80
2023/03/08 03:55:53;;;;;;;12.53;8.97;;;6.30;99.90;;;;;;4918451;29;20176;-80
2023/03/08 03:58:19;;;;;;;10.67;8.47;;;6.40;99.90;;;;;;4917855;29;20415;-80
2023/03/08 04:00:45;;;;;;;9.93;8.77;;;6.30;99.90;;;;;;4917437;29;20172;-80
2023/03/08 04:03:11;;;;;;;13.47;9.53;;;6.30;99.90;;;;;;4917004;29;20239;-81
2023/03/08 04:05:36;;;;;;;11.93;9.10;;;6.30;99.90;;;;;;4917234;29;20242;-80
2023/03/08 04:08:02;;;;;;;10.73;9.07;;;6.30;99.90;;;;;;4917145;29;20409;-84
2023/03/08 04:10:30;;;;;;;12.90;9.33;;;6.20;99.90;;;;;;4917747;29;20409;-81
2023/03/08 04:12:56;;;;;;;13.05;9.90;;;6.30;99.90;;;;;;4918236;29;20463;-81
2023/03/08 04:15:21;;;;;;;11.17;8.83;;;6.20;99.90;;;;;;4916889;29;20812;-81
2023/03/08 04:17:47;;;;;;;13.97;10.10;;;6.20;99.90;;;;;;4916450;29;20194;-82
2023/03/08 04:20:15;;;;;;;12.03;9.40;;;6.20;99.90;;;;;;4917604;29;20187;-81
2023/03/08 04:22:41;;;;;;;13.35;8.85;;;6.20;99.90;;;;;;4917299;29;20270;-80
2023/03/08 04:25:07;;;;;;;13.97;9.40;;;6.20;99.90;;;;;;4917740;29;20202;-80
2023/03/08 04:27:32;;;;;;;13.60;9.73;;;6.20;99.90;;;;;;4898497;29;20289;-80
2023/03/08 04:29:58;;;;;;;11.30;9.40;;;6.30;99.90;;;;;;4910387;29;20942;-80
2023/03/08 04:32:24;;;;;;;11.60;9.13;;;6.20;99.90;;;;;;4916621;29;20180;-80
2023/03/08 04:34:49;;;;;;;12.33;9.13;;;6.10;99.90;;;;;;4915576;29;20196;-80
2023/03/08 04:37:15;;;;;;;12.60;10.37;;;6.10;99.90;;;;;;4921473;29;20187;-79
2023/03/08 04:39:41;;;;;;;13.13;9.13;;;6.10;99.90;;;;;;4922883;29;20275;-81
2023/03/08 04:42:07;;;;;;;13.40;11.60;;;6.10;99.90;;;;;;4917531;29;20190;-84
2023/03/08 04:44:32;;;;;;;15.30;10.93;;;6.10;99.90;;;;;;4916688;29;20222;-80
2023/03/08 04:46:58;;;;;;;16.03;9.50;;;6.10;99.90;;;;;;4917657;29;20406;-80
2023/03/08 04:49:24;;;;;;;14.33;10.53;;;6.00;99.90;;;;;;4916065;29;20258;-80
2023/03/08 04:51:50;;;;;;;12.73;9.77;;;6.00;99.90;;;;;;4917248;29;20217;-80
2023/03/08 04:54:15;;;;;;;15.70;9.33;;;5.90;99.90;;;;;;4916631;29;20234;-81
2023/03/08 04:56:41;;;;;;;13.57;10.83;;;5.90;99.90;;;;;;4916698;29;20187;-79
2023/03/08 04:59:07;;;;;;;14.27;10.57;;;6.00;99.90;;;;;;4916696;29;20194;-85
2023/03/08 05:01:32;;;;;;;12.90;10.10;;;6.00;99.90;;;;;;4917404;29;20191;-80
2023/03/08 05:04:00;;;;;;;13.63;9.63;;;6.00;99.90;;;;;;4916695;29;20221;-79
2023/03/08 05:06:26;;;;;;;14.85;10.25;;;6.00;99.90;;;;;;4915874;29;20189;-79
2023/03/08 05:08:53;;;;;;;14.10;9.27;;;5.90;99.90;;;;;;4916924;29;20195;-80
2023/03/08 05:11:23;;;;;;;15.27;9.38;;;5.80;99.90;;;;;;4916016;29;20430;-89
2023/03/08 05:13:49;;;;;;;13.02;9.20;;;5.80;99.90;;;;;;4917991;29;20219;-87
2023/03/08 05:16:15;;;;;;;14.68;9.30;;;5.80;99.90;;;;;;4917423;29;20174;-88
2023/03/08 05:18:47;;;;;;;15.97;10.73;;;5.90;99.90;;;;;;4918289;29;20243;-88
2023/03/08 05:21:15;;;;;;;15.40;10.40;;;5.80;99.90;;;;;;4900490;29;20404;-88
2023/03/08 05:23:41;;;;;;;14.32;10.30;;;5.70;99.90;;;;;;4916549;29;20178;-88
2023/03/08 05:26:10;;;;;;;12.60;8.93;;;5.70;99.90;;;;;;4916876;29;20588;-85
2023/03/08 05:28:36;;;;;;;13.85;9.32;;;5.60;99.90;;;;;;4915406;29;20409;-88
2023/03/08 05:31:07;;;;;;;16.15;9.88;;;5.60;99.90;;;;;;4916449;29;20189;-88
2023/03/08 05:33:34;;;;;;;14.07;10.07;;;5.60;99.90;;;;;;4916703;29;20571;-86
2023/03/08 05:36:00;;;;;;;16.05;9.30;;;5.60;99.90;;;;;;4915924;29;20274;-86
2023/03/08 05:38:26;;;;;;;9.77;7.50;;;5.80;99.90;;;;;;4915694;29;20710;-86
2023/03/08 05:40:52;;;;;;;10.60;8.13;;;5.50;99.90;;;;;;4914728;29;20452;-87
2023/03/08 05:43:18;;;;;;;11.45;8.45;;;5.70;99.90;;;;;;4895626;29;20575;-87
2023/03/08 05:46:02;;;;;;;10.50;7.70;;;5.70;99.90;;;;;;4914062;29;20186;-84
2023/03/08 05:48:29;;;;;;;9.93;7.57;;;5.80;99.90;;;;;;4914530;29;20271;-86
2023/03/08 05:50:55;;;;;;;9.05;6.97;;;5.80;99.90;;;;;;4915258;29;20561;-86
2023/03/08 05:53:22;;;;;;;12.73;9.87;;;5.70;99.90;;;;;;4915898;29;20347;-88
2023/03/08 05:55:48;;;;;;;9.25;7.32;;;5.70;99.90;;;;;;4915835;29;20443;-87
2023/03/08 05:58:14;;;;;;;7.63;6.35;;;5.70;99.90;;;;;;4915559;29;20553;-87
2023/03/08 06:00:41;;;;;;;8.93;6.38;;;5.70;99.90;;;;;;4915777;29;20632;-86
2023/03/08 06:03:06;;;;;;;9.10;8.02;;;5.60;99.90;;;;;;4914813;29;20196;-86
2023/03/08 06:05:33;;;;;;;7.23;5.70;;;5.60;99.90;;;;;;4913276;29;20524;-87
2023/03/08 06:07:59;;;;;;;8.27;6.95;;;5.60;99.90;;;;;;4914731;29;20237;-86
2023/03/08 06:10:25;;;;;;;5.40;4.43;;;5.60;99.90;;;;;;4915279;29;20567;-87
2023/03/08 06:12:51;;;;;;;8.30;7.57;;;5.70;99.90;;;;;;4915093;29;20207;-88
2023/03/08 06:15:17;;;;;;;16.07;6.23;;;5.70;99.90;;;;;;4914663;29;20275;-87
2023/03/08 06:17:43;;;;;;;8.13;6.50;;;5.70;99.90;;;;;;4915931;29;20418;-87
2023/03/08 06:20:09;;;;;;;12.30;7.57;;;5.60;99.90;;;;;;4912991;29;20260;-86
2023/03/08 06:22:35;;;;;;;14.85;9.30;;;5.50;99.90;;;;;;4914373;29;20457;-86
2023/03/08 06:25:02;;;;;;;4.88;4.32;;;5.70;99.90;;;;;;4915542;29;20189;-87
2023/03/08 06:27:28;;;;;;;4.72;4.28;;;5.40;99.90;;;;;;4913882;29;20270;-81
2023/03/08 06:29:54;;;;;;;3.40;3.10;;;5.30;99.90;;;;;;4913814;29;20221;-81
2023/03/08 06:32:20;;;;;;;3.90;3.50;;;5.30;99.90;;;;;;4914371;29;20449;-83
2023/03/08 06:34:46;;;;;;;6.33;5.20;;;5.40;99.90;;;;;;4916193;29;20191;-83
2023/03/08 06:37:13;;;;;;;5.18;4.00;;;5.50;99.90;;;;;;4912927;29;20549;-84
2023/03/08 06:39:39;;;;;;;6.10;5.38;;;5.40;99.90;;;;;;4909042;29;20264;-85
2023/03/08 06:42:04;;;;;;;5.60;5.20;;;5.80;99.90;;;;;;4913625;29;20179;-83
2023/03/08 06:44:30;;;;;;;3.73;3.50;;;6.20;99.90;;;;;;4913073;29;20294;-83
2023/03/08 06:46:56;;;;;;;3.57;3.27;;;5.60;99.90;;;;;;4916665;29;20872;-82
2023/03/08 06:49:22;;;;;;;5.43;3.90;;;5.00;99.90;;;;;;4915087;29;20221;-84
2023/03/08 06:51:48;;;;;;;3.77;3.57;;;4.60;99.90;;;;;;4915742;29;20450;-83
2023/03/08 06:54:16;;;;;;;3.67;3.37;;;4.50;99.90;;;;;;4915185;29;20211;-84
2023/03/08 06:56:46;;;;;;;5.97;5.03;;;4.40;99.90;;;;;;4914518;29;20418;-84
2023/03/08 06:59:15;;;;;;;4.15;3.53;;;4.00;99.90;;;;;;4913078;29;20547;-86
2023/03/08 07:01:40;;;;;;;3.80;3.40;;;4.00;99.90;;;;;;4898985;29;20210;-84
2023/03/08 07:04:06;;;;;;;7.73;7.03;;;4.00;99.90;;;;;;4915309;29;20214;-84
2023/03/08 07:06:32;;;;;;;4.80;4.40;;;4.50;99.90;;;;;;4913704;29;20526;-83
2023/03/08 07:08:58;;;;;;;3.63;3.30;;;4.90;99.90;;;;;;4929254;29;20182;-88
2023/03/08 07:11:25;;;;;;;3.37;3.17;;;5.70;99.90;;;;;;4928801;29;20423;-83
2023/03/08 07:13:51;;;;;;;3.90;3.70;;;6.10;99.90;;;;;;4911856;29;20500;-83
2023/03/08 07:16:17;;;;;;;4.27;3.90;;;6.10;99.90;;;;;;4915109;29;20202;-83
2023/03/08 07:18:43;;;;;;;3.80;3.50;;;6.30;99.90;;;;;;4914769;29;20475;-84
2023/03/08 07:21:09;;;;;;;2.63;2.43;;;6.60;99.90;;;;;;4915489;29;20180;-81
2023/03/08 07:23:35;;;;;;;5.20;3.07;;;7.00;99.90;;;;;;4917636;29;20180;-81
2023/03/08 07:26:08;;;;;;;2.70;2.50;;;7.00;99.90;;;;;;4917441;29;20895;-80
2023/03/08 07:28:34;;;;;;;5.65;5.05;;;6.80;99.90;;;;;;4915694;29;20693;-82
2023/03/08 07:31:00;;;;;;;5.10;3.87;;;6.60;99.90;;;;;;4917600;29;20246;-82
2023/03/08 07:33:26;;;;;;;3.20;2.93;;;6.50;99.90;;;;;;4916886;29;20464;-82
2023/03/08 07:35:51;;;;;;;5.73;3.50;;;6.30;99.90;;;;;;4916720;29;20463;-82
2023/03/08 07:38:17;;;;;;;3.93;3.50;;;6.20;99.90;;;;;;4917336;29;20226;-80
2023/03/08 07:40:43;;;;;;;2.83;2.63;;;6.10;99.90;;;;;;4915400;29;20180;-81
2023/03/08 07:43:09;;;;;;;3.33;3.13;;;6.00;99.90;;;;;;4912498;29;20306;-83
2023/03/08 07:45:38;;;;;;;5.10;4.70;;;5.90;99.90;;;;;;4917130;29;20307;-84
2023/03/08 07:48:05;;;;;;;3.00;2.80;;;5.80;99.90;;;;;;4914607;29;20444;-82
2023/03/08 07:50:30;;;;;;;3.55;3.25;;;5.70;99.90;;;;;;4917848;29;20194;-83
2023/03/08 07:52:58;;;;;;;4.50;4.30;;;5.70;99.90;;;;;;4917985;29;20213;-83
2023/03/08 07:55:26;;;;;;;3.70;3.50;;;5.60;99.90;;;;;;4917263;29;20190;-84
2023/03/08 07:57:52;;;;;;;4.30;3.90;;;5.50;99.90;;;;;;4916816;29;20186;-82
2023/03/08 08:00:18;;;;;;;3.90;3.60;;;5.40;99.90;;;;;;4918220;29;20198;-82
2023/03/08 08:02:44;;;;;;;3.38;3.08;;;5.40;99.90;;;;;;4919569;29;20446;-82
2023/03/08 08:05:10;;;;;;;3.40;3.10;;;5.30;99.90;;;;;;4931645;29;20242;-82
2023/03/08 08:07:36;;;;;;;4.00;2.60;;;5.30;99.90;;;;;;4922146;29;20590;-82
2023/03/08 08:10:02;;;;;;;3.63;2.87;;;5.20;99.90;;;;;;4932890;29;20187;-81
2023/03/08 08:12:27;;;;;;;5.00;4.60;;;5.10;99.90;;;;;;4917781;29;20695;-81
2023/03/08 08:14:53;;;;;;;7.00;3.80;;;5.10;99.90;;;;;;4916276;29;20426;-80
2023/03/08 08:17:20;;;;;;;4.60;4.20;;;5.20;99.90;;;;;;4917602;29;20182;-81
2023/03/08 08:19:46;;;;;;;6.50;6.00;;;5.10;99.90;;;;;;4918218;29;20603;-81
2023/03/08 08:22:11;;;;;;;4.78;4.32;;;5.20;99.90;;;;;;4916831;29;20187;-81
2023/03/08 08:24:37;;;;;;;4.47;3.50;;;5.30;99.90;;;;;;4917720;29;20270;-80
2023/03/08 08:27:03;;;;;;;5.60;5.30;;;5.30;99.90;;;;;;4915375;29;20190;-80
2023/03/08 08:29:29;;;;;;;4.10;3.70;;;5.30;99.90;;;;;;4916209;29;20539;-80
2023/03/08 08:31:55;;;;;;;3.30;3.00;;;5.30;99.90;;;;;;4917363;29;20409;-81
2023/03/08 08:34:22;;;;;;;3.65;3.35;;;5.30;99.90;;;;;;4931631;29;20214;-81
2023/03/08 08:36:48;;;;;;;5.00;4.70;;;5.30;99.90;;;;;;4913933;29;20180;-80
2023/03/08 08:39:14;;;;;;;4.70;4.32;;;5.30;99.90;;;;;;4898976;29;20191;-81
2023/03/08 08:41:40;;;;;;;3.87;3.60;;;5.40;99.90;;;;;;4915005;29;20182;-81
2023/03/08 08:44:06;;;;;;;4.37;4.17;;;5.40;99.90;;;;;;4917318;29;20472;-80
2023/03/08 08:46:33;;;;;;;4.57;4.22;;;5.30;99.90;;;;;;4916745;29;20269;-80
2023/03/08 08:49:00;;;;;;;4.00;3.70;;;5.20;99.90;;;;;;4917727;29;20179;-81
2023/03/08 08:51:26;;;;;;;4.70;4.40;;;5.30;99.90;;;;;;4912496;29;20191;-81
2023/03/08 08:53:53;;;;;;;5.90;5.40;;;5.20;99.90;;;;;;4902323;29;20298;-80
2023/03/08 08:56:25;;;;;;;4.57;4.28;;;5.20;99.90;;;;;;4917260;29;20843;-88
2023/03/08 08:58:50;;;;;;;4.85;4.45;;;5.30;99.90;;;;;;4916962;29;20259;-81
2023/03/08 09:01:19;;;;;;;4.43;4.13;;;5.20;99.90;;;;;;4916996;29;20269;-81
2023/03/08 09:03:45;;;;;;;4.60;4.20;;;5.20;99.90;;;;;;4916315;29;20190;-81
2023/03/08 09:06:13;;;;;;;4.70;4.40;;;5.20;99.90;;;;;;4917095;29;20190;-81
2023/03/08 09:08:39;;;;;;;4.85;4.50;;;5.20;99.90;;;;;;4914900;29;20592;-82
2023/03/08 09:11:07;;;;;;;3.57;3.37;;;5.30;99.90;;;;;;4914597;29;20274;-81
2023/03/08 09:13:33;;;;;;;4.45;4.10;;;5.30;99.90;;;;;;4915239;29;20218;-81
2023/03/08 09:15:59;;;;;;;3.70;3.40;;;5.30;99.90;;;;;;4915551;29;20634;-81
2023/03/08 09:18:25;;;;;;;3.30;3.10;;;5.30;99.90;;;;;;4916212;29;20529;-81
2023/03/08 09:20:50;;;;;;;5.00;4.70;;;5.30;99.90;;;;;;4917460;29;20257;-81
2023/03/08 09:23:16;;;;;;;3.50;3.20;;;5.30;99.90;;;;;;4916728;29;20205;-81
2023/03/08 09:25:42;;;;;;;3.17;2.97;;;5.40;99.90;;;;;;4916409;29;20517;-83
2023/03/08 09:28:09;;;;;;;3.17;2.87;;;5.40;99.90;;;;;;4916877;29;20496;-81
2023/03/08 09:30:35;;;;;;;5.97;4.57;;;5.40;99.90;;;;;;4915749;29;20174;-81
2023/03/08 09:33:02;;;;;;;3.97;3.53;;;5.40;99.90;;;;;;4926344;29;20213;-81
2023/03/08 09:35:29;;;;;;;3.80;3.50;;;5.50;99.90;;;;;;4915942;29;20193;-83
2023/03/08 09:37:55;;;;;;;3.90;3.60;;;5.60;99.90;;;;;;4915812;29;20185;-81
2023/03/08 09:40:24;;;;;;;4.63;4.23;;;5.60;99.90;;;;;;4915861;29;20183;-89
2023/03/08 09:42:52;;;;;;;5.40;4.90;;;5.60;99.90;;;;;;4915704;29;20189;-82
2023/03/08 09:45:24;;;;;;;5.78;5.22;;;5.50;99.90;;;;;;4916323;29;20198;-81
2023/03/08 09:48:19;;;;;;;4.80;4.50;;;5.60;99.90;;;;;;4915264;29;20192;-81
2023/03/08 09:50:53;;;;;;;4.80;4.45;;;5.60;99.90;;;;;;4912506;29;20204;-82
2023/03/08 09:53:38;;;;;;;4.60;4.35;;;5.60;99.90;;;;;;4916185;29;20206;-81
2023/03/08 09:56:15;;;;;;;5.43;3.90;;;5.60;99.90;;;;;;4917283;29;20165;-85
2023/03/08 09:58:55;;;;;;;4.43;4.03;;;5.50;99.90;;;;;;4896882;29;20167;-81
2023/03/08 10:01:39;;;;;;;4.63;4.22;;;5.50;99.90;;;;;;4912506;29;20258;-82
2023/03/08 10:04:08;;;;;;;5.70;3.80;;;5.50;99.90;;;;;;4917156;29;20190;-82
2023/03/08 10:07:09;;;;;;;3.15;3.05;;;5.60;99.90;;;;;;4915666;29;20257;-82
2023/03/08 10:09:40;;;;;;;3.85;3.50;;;5.70;99.90;;;;;;4914955;29;20166;-82
2023/03/08 10:12:28;;;;;;;3.63;3.42;;;5.70;99.90;;;;;;4915658;29;20247;-82
2023/03/08 10:15:00;;;;;;;3.72;3.53;;;5.70;99.90;;;;;;4915247;29;20280;-82
2023/03/08 10:17:51;;;;;;;3.53;3.33;;;5.70;99.90;;;;;;4916266;29;20167;-82
2023/03/08 10:20:23;;;;;;;3.90;3.70;;;5.60;99.90;;;;;;4903106;29;20241;-82
2023/03/08 10:23:00;;;;;;;4.18;4.00;;;5.60;99.90;;;;;;4917054;29;20174;-84
2023/03/08 10:25:30;;;;;;;2.88;2.55;;;5.70;99.90;;;;;;4897572;29;20203;-81
2023/03/08 10:27:58;;;;;;;3.30;3.10;;;5.80;99.90;;;;;;4908373;29;20182;-81
2023/03/08 10:30:34;;;;;;;4.18;3.97;;;5.80;99.90;;;;;;4914206;29;20178;-88
2023/03/08 10:33:06;;;;;;;3.70;3.40;;;5.90;99.90;;;;;;4916829;29;20214;-82
2023/03/08 10:35:36;;;;;;;2.70;2.60;;;5.90;99.90;;;;;;4899125;29;20597;-82
2023/03/08 10:38:03;;;;;;;4.28;3.88;;;5.90;99.90;;;;;;4916356;29;20182;-82
2023/03/08 10:40:29;;;;;;;3.30;3.10;;;5.80;99.90;;;;;;4915488;29;20223;-83
2023/03/08 10:43:01;;;;;;;4.17;3.87;;;5.90;99.90;;;;;;4915881;29;20190;-82
2023/03/08 10:45:28;;;;;;;3.10;2.90;;;5.90;99.90;;;;;;4916464;29;20179;-88
2023/03/08 10:47:58;;;;;;;4.05;3.75;;;5.90;99.90;;;;;;4916228;29;20194;-81
2023/03/08 10:50:36;;;;;;;4.45;4.15;;;6.00;99.90;;;;;;4914874;29;20330;-82
2023/03/08 10:53:19;;;;;;;4.22;3.92;;;6.00;99.90;;;;;;4916409;29;20202;-81
2023/03/08 10:55:51;;;;;;;3.90;3.60;;;6.10;99.90;;;;;;4918298;29;20261;-81
2023/03/08 10:58:33;;;;;;;3.50;3.30;;;6.20;99.90;;;;;;4919378;29;20606;-81
2023/03/08 11:01:27;;;;;;;3.10;3.00;;;6.20;99.90;;;;;;4919398;29;20513;-81
2023/03/08 11:04:11;;;;;;;3.40;3.28;;;6.20;99.90;;;;;;4917359;29;20202;-81
2023/03/08 11:06:37;;;;;;;3.20;3.00;;;6.20;99.90;;;;;;4919389;29;20166;-81
2023/03/08 11:09:18;;;;;;;3.37;3.17;;;6.20;99.90;;;;;;4919242;29;20651;-81
2023/03/08 11:11:43;;;;;;;3.10;2.90;;;6.30;99.90;;;;;;4918368;29;20191;-82
2023/03/08 11:14:10;;;;;;;3.47;3.27;;;6.30;99.90;;;;;;4917818;29;20522;-81
2023/03/08 11:16:58;;;;;;;5.10;4.80;;;6.30;99.90;;;;;;4919846;29;20187;-81
2023/03/08 11:19:35;;;;;;;3.80;3.50;;;6.40;99.90;;;;;;4917612;29;20602;-82
2023/03/08 11:22:19;;;;;;;4.18;3.85;;;6.40;99.90;;;;;;4918851;29;20432;-82
2023/03/08 11:25:08;;;;;;;4.25;3.95;;;6.50;99.90;;;;;;4919239;29;20263;-82
2023/03/08 11:27:55;;;;;;;4.00;3.80;;;6.30;99.90;;;;;;4917527;29;20274;-82
2023/03/08 11:30:33;;;;;;;3.83;3.55;;;6.30;99.90;;;;;;4916900;29;20554;-82
2023/03/08 11:33:01;;;;;;;4.20;3.90;;;6.40;99.90;;;;;;4918823;29;20215;-83
2023/03/08 11:35:36;;;;;;;6.33;4.10;;;6.40;99.90;;;;;;4918460;29;20434;-82
2023/03/08 11:38:16;;;;;;;5.17;4.77;;;6.40;99.90;;;;;;4935295;29;20410;-81
2023/03/08 11:41:15;;;;;;;5.13;4.82;;;6.40;99.90;;;;;;4924610;29;20506;-83
2023/03/08 11:44:17;;;;;;;5.27;4.90;;;6.50;99.90;;;;;;4915467;29;20262;-81
2023/03/08 11:46:49;;;;;;;5.18;4.80;;;6.50;99.90;;;;;;4915827;29;20439;-81
2023/03/08 11:49:40;;;;;;;5.13;4.70;;;6.50;99.90;;;;;;4920894;29;20219;-81
2023/03/08 11:52:27;;;;;;;5.57;5.13;;;6.50;99.90;;;;;;4920178;29;20412;-82
2023/03/08 11:55:19;;;;;;;5.00;4.60;;;6.40;99.90;;;;;;4919554;29;20757;-81
2023/03/08 11:57:52;;;;;;;4.50;4.20;;;6.40;99.90;;;;;;4919673;29;20238;-81
2023/03/08 12:00:34;;;;;;;4.45;4.25;;;6.30;99.90;;;;;;4921458;29;20188;-81
2023/03/08 12:03:08;;;;;;;4.60;4.40;;;6.40;99.90;;;;;;4920022;29;20270;-81
2023/03/08 12:05:39;;;;;;;4.80;4.40;;;6.40;99.90;;;;;;4919960;29;20648;-82
2023/03/08 12:08:35;;;;;;;3.93;3.73;;;6.50;99.90;;;;;;4919365;29;20179;-82
2023/03/08 12:11:09;;;;;;;5.03;4.63;;;6.50;99.90;;;;;;4919315;29;20443;-82
2023/03/08 12:13:38;;;;;;;5.80;5.40;;;6.50;99.90;;;;;;4918126;29;20568;-82
2023/03/08 12:16:21;;;;;;;5.67;5.17;;;6.70;99.90;;;;;;4921398;29;20427;-81
2023/03/08 12:19:11;;;;;;;6.10;5.43;;;6.50;99.90;;;;;;4887468;29;20845;-82
2023/03/08 12:21:40;;;;;;;6.40;5.90;;;6.40;99.90;;;;;;4925687;29;20424;-83
2023/03/08 12:24:30;;;;;;;6.15;5.65;;;6.50;99.90;;;;;;4907055;29;20430;-82
2023/03/08 12:27:09;;;;;;;5.03;4.70;;;6.50;99.90;;;;;;4924193;29;20248;-82
2023/03/08 12:30:27;;;;;;;5.53;5.10;;;6.50;99.90;;;;;;4924095;29;20442;-83
2023/03/08 12:32:54;;;;;;;6.27;5.87;;;6.40;99.90;;;;;;4859710;29;20465;-82
2023/03/08 12:35:28;;;;;;;5.13;4.83;;;6.40;99.90;;;;;;4912360;29;20439;-81
2023/03/08 12:38:17;;;;;;;5.13;4.73;;;6.40;99.90;;;;;;4920949;29;20393;-83
2023/03/08 12:40:46;;;;;;;5.10;4.80;;;6.40;99.90;;;;;;4896027;29;20408;-81
2023/03/08 12:43:34;;;;;;;5.30;5.00;;;6.40;99.90;;;;;;4912555;29;20986;-82
2023/03/08 12:46:01;;;;;;;5.53;5.13;;;6.50;99.90;;;;;;4920000;29;20502;-82
2023/03/08 12:48:34;;;;;;;4.97;4.50;;;6.60;99.90;;;;;;4918485;29;20445;-83
2023/03/08 12:51:12;;;;;;;5.53;5.03;;;6.60;99.90;;;;;;4919123;29;20500;-83
2023/03/08 12:53:41;;;;;;;5.07;4.70;;;6.60;99.90;;;;;;4900677;29;20460;-82
2023/03/08 12:56:10;;;;;;;5.20;4.80;;;6.60;99.90;;;;;;4927541;29;20521;-82
2023/03/08 12:58:51;;;;;;;5.57;5.17;;;6.60;99.90;;;;;;4916602;29;20582;-83
2023/03/08 13:01:33;;;;;;;5.17;4.73;;;6.60;99.90;;;;;;4917330;29;20392;-82